Wills Point, Texas
Current Conditions -  °F | °C
As of 3:53 PM on Wednesday 26 Nov 2014 (Local Time) from KTRL Reporting Station
Clear Clear  
Wind Chill: 66°   Ceiling: Unl
Heat Index: 66°   Visibility: 10mi
Dew Point: 33°   Wind: 10mph
Humidity: 29%   Direction: 320°NW
Pressure: 30.19"   Gusts: NA
Location:  32.71°N, 96.01°W
Report Text: KTRL 262153Z AUTO 32009KT 10SM CLR 19/01 A3019 RMK AO2 SLP223 T01890006
Loading
Personal Weather Stations






























Interactive Weather Map New forecast layout! Learn more

10-Day Weather Forecast

Advertisements
Track Severe Weather on mobile